sensor_id;sensor_type;location;lat;lon;timestamp;P1;durP1;ratioP1;P2;durP2;ratioP2
41661;SDS011;27351;45.992;12.666;2023-05-08T00:01:54;4.82;;;2.70;;
41661;SDS011;27351;45.992;12.666;2023-05-08T00:04:20;5.45;;;2.50;;
41661;SDS011;27351;45.992;12.666;2023-05-08T00:06:45;4.87;;;2.80;;
41661;SDS011;27351;45.992;12.666;2023-05-08T00:09:11;5.00;;;2.83;;
41661;SDS011;27351;45.992;12.666;2023-05-08T00:11:37;5.07;;;2.53;;
41661;SDS011;27351;45.992;12.666;2023-05-08T00:14:03;4.03;;;2.50;;
41661;SDS011;27351;45.992;12.666;2023-05-08T00:16:28;3.72;;;2.33;;
41661;SDS011;27351;45.992;12.666;2023-05-08T00:18:54;4.15;;;2.08;;
41661;SDS011;27351;45.992;12.666;2023-05-08T00:21:19;3.53;;;2.20;;
41661;SDS011;27351;45.992;12.666;2023-05-08T00:23:45;4.17;;;2.20;;
41661;SDS011;27351;45.992;12.666;2023-05-08T00:26:10;3.40;;;2.25;;
41661;SDS011;27351;45.992;12.666;2023-05-08T00:28:36;3.83;;;2.00;;
41661;SDS011;27351;45.992;12.666;2023-05-08T00:31:01;4.47;;;2.10;;
41661;SDS011;27351;45.992;12.666;2023-05-08T00:33:27;3.70;;;2.00;;
41661;SDS011;27351;45.992;12.666;2023-05-08T00:36:02;4.13;;;2.15;;
41661;SDS011;27351;45.992;12.666;2023-05-08T00:38:29;4.05;;;2.20;;
41661;SDS011;27351;45.992;12.666;2023-05-08T00:40:55;5.28;;;2.20;;
41661;SDS011;27351;45.992;12.666;2023-05-08T00:43:20;4.33;;;2.20;;
41661;SDS011;27351;45.992;12.666;2023-05-08T00:45:50;3.67;;;1.87;;
41661;SDS011;27351;45.992;12.666;2023-05-08T00:48:15;3.40;;;2.00;;
41661;SDS011;27351;45.992;12.666;2023-05-08T00:50:41;4.00;;;1.80;;
41661;SDS011;27351;45.992;12.666;2023-05-08T00:53:07;3.58;;;2.00;;
41661;SDS011;27351;45.992;12.666;2023-05-08T00:55:33;3.13;;;1.90;;
41661;SDS011;27351;45.992;12.666;2023-05-08T00:57:58;4.23;;;1.90;;
41661;SDS011;27351;45.992;12.666;2023-05-08T01:00:24;3.90;;;1.90;;
41661;SDS011;27351;45.992;12.666;2023-05-08T01:02:50;2.97;;;1.70;;
41661;SDS011;27351;45.992;12.666;2023-05-08T01:05:15;3.83;;;1.90;;
41661;SDS011;27351;45.992;12.666;2023-05-08T01:07:41;3.58;;;2.00;;
41661;SDS011;27351;45.992;12.666;2023-05-08T01:10:07;3.97;;;2.10;;
41661;SDS011;27351;45.992;12.666;2023-05-08T01:15:25;4.55;;;1.88;;
41661;SDS011;27351;45.992;12.666;2023-05-08T01:18:10;3.15;;;1.83;;
41661;SDS011;27351;45.992;12.666;2023-05-08T01:33:49;4.65;;;2.63;;
41661;SDS011;27351;45.992;12.666;2023-05-08T01:36:31;4.03;;;2.70;;
41661;SDS011;27351;45.992;12.666;2023-05-08T01:41:50;6.07;;;2.95;;
41661;SDS011;27351;45.992;12.666;2023-05-08T01:44:21;4.28;;;2.60;;
41661;SDS011;27351;45.992;12.666;2023-05-08T01:46:49;5.70;;;3.00;;
41661;SDS011;27351;45.992;12.666;2023-05-08T01:49:25;5.80;;;3.20;;
41661;SDS011;27351;45.992;12.666;2023-05-08T01:51:59;5.32;;;2.92;;
41661;SDS011;27351;45.992;12.666;2023-05-08T01:54:27;6.67;;;3.10;;
41661;SDS011;27351;45.992;12.666;2023-05-08T01:56:55;4.90;;;3.10;;
41661;SDS011;27351;45.992;12.666;2023-05-08T01:59:22;5.40;;;3.00;;
41661;SDS011;27351;45.992;12.666;2023-05-08T02:01:50;5.43;;;2.90;;
41661;SDS011;27351;45.992;12.666;2023-05-08T02:04:19;4.38;;;2.85;;
41661;SDS011;27351;45.992;12.666;2023-05-08T02:06:45;6.00;;;3.43;;
41661;SDS011;27351;45.992;12.666;2023-05-08T02:09:11;5.45;;;3.30;;
41661;SDS011;27351;45.992;12.666;2023-05-08T02:11:38;6.05;;;2.90;;
41661;SDS011;27351;45.992;12.666;2023-05-08T02:14:03;5.95;;;2.90;;
41661;SDS011;27351;45.992;12.666;2023-05-08T02:16:30;5.05;;;3.15;;
41661;SDS011;27351;45.992;12.666;2023-05-08T02:18:57;6.13;;;3.20;;
41661;SDS011;27351;45.992;12.666;2023-05-08T02:21:24;4.85;;;2.92;;
41661;SDS011;27351;45.992;12.666;2023-05-08T02:23:50;6.18;;;2.88;;
41661;SDS011;27351;45.992;12.666;2023-05-08T02:26:16;4.80;;;3.10;;
41661;SDS011;27351;45.992;12.666;2023-05-08T02:28:43;5.97;;;3.00;;
41661;SDS011;27351;45.992;12.666;2023-05-08T02:31:10;4.68;;;3.00;;
41661;SDS011;27351;45.992;12.666;2023-05-08T02:33:37;4.18;;;2.65;;
41661;SDS011;27351;45.992;12.666;2023-05-08T02:36:03;5.35;;;2.70;;
41661;SDS011;27351;45.992;12.666;2023-05-08T02:38:29;4.50;;;2.58;;
41661;SDS011;27351;45.992;12.666;2023-05-08T02:40:57;4.32;;;2.28;;
41661;SDS011;27351;45.992;12.666;2023-05-08T02:43:25;3.70;;;2.28;;
41661;SDS011;27351;45.992;12.666;2023-05-08T02:45:58;4.13;;;2.47;;
41661;SDS011;27351;45.992;12.666;2023-05-08T02:48:32;4.72;;;2.63;;
41661;SDS011;27351;45.992;12.666;2023-05-08T02:51:01;5.20;;;2.53;;
41661;SDS011;27351;45.992;12.666;2023-05-08T02:53:45;5.03;;;2.72;;
41661;SDS011;27351;45.992;12.666;2023-05-08T02:59:06;4.43;;;2.73;;
41661;SDS011;27351;45.992;12.666;2023-05-08T03:02:21;6.10;;;3.30;;
41661;SDS011;27351;45.992;12.666;2023-05-08T03:04:31;6.07;;;2.97;;
41661;SDS011;27351;45.992;12.666;2023-05-08T03:06:59;6.10;;;2.75;;
41661;SDS011;27351;45.992;12.666;2023-05-08T03:09:25;5.28;;;3.17;;
41661;SDS011;27351;45.992;12.666;2023-05-08T03:12:00;5.20;;;2.80;;
41661;SDS011;27351;45.992;12.666;2023-05-08T03:14:29;4.85;;;2.97;;
41661;SDS011;27351;45.992;12.666;2023-05-08T03:16:56;7.20;;;3.50;;
41661;SDS011;27351;45.992;12.666;2023-05-08T03:19:26;7.00;;;3.53;;
41661;SDS011;27351;45.992;12.666;2023-05-08T03:21:52;6.97;;;3.60;;
41661;SDS011;27351;45.992;12.666;2023-05-08T03:24:19;6.57;;;4.03;;
41661;SDS011;27351;45.992;12.666;2023-05-08T03:26:47;7.72;;;4.72;;
41661;SDS011;27351;45.992;12.666;2023-05-08T03:29:13;7.13;;;4.60;;
41661;SDS011;27351;45.992;12.666;2023-05-08T03:31:39;9.18;;;5.32;;
41661;SDS011;27351;45.992;12.666;2023-05-08T03:34:06;8.48;;;5.45;;
41661;SDS011;27351;45.992;12.666;2023-05-08T03:36:32;8.30;;;5.60;;
41661;SDS011;27351;45.992;12.666;2023-05-08T03:38:59;8.55;;;5.70;;
41661;SDS011;27351;45.992;12.666;2023-05-08T03:41:24;8.95;;;5.75;;
41661;SDS011;27351;45.992;12.666;2023-05-08T03:43:51;9.60;;;6.43;;
41661;SDS011;27351;45.992;12.666;2023-05-08T03:46:17;9.20;;;6.10;;
41661;SDS011;27351;45.992;12.666;2023-05-08T03:48:43;10.23;;;6.30;;
41661;SDS011;27351;45.992;12.666;2023-05-08T03:51:10;9.68;;;6.82;;
41661;SDS011;27351;45.992;12.666;2023-05-08T03:53:37;10.40;;;7.47;;
41661;SDS011;27351;45.992;12.666;2023-05-08T03:56:03;11.52;;;7.25;;
41661;SDS011;27351;45.992;12.666;2023-05-08T03:58:32;10.50;;;7.10;;
41661;SDS011;27351;45.992;12.666;2023-05-08T04:05:57;9.85;;;6.85;;
41661;SDS011;27351;45.992;12.666;2023-05-08T04:08:28;11.10;;;7.53;;
41661;SDS011;27351;45.992;12.666;2023-05-08T04:10:57;11.18;;;7.50;;
41661;SDS011;27351;45.992;12.666;2023-05-08T04:13:29;10.35;;;7.40;;
41661;SDS011;27351;45.992;12.666;2023-05-08T04:16:04;12.20;;;7.63;;
41661;SDS011;27351;45.992;12.666;2023-05-08T04:18:31;10.65;;;7.35;;
41661;SDS011;27351;45.992;12.666;2023-05-08T04:21:00;11.02;;;8.25;;
41661;SDS011;27351;45.992;12.666;2023-05-08T04:23:28;13.00;;;9.00;;
41661;SDS011;27351;45.992;12.666;2023-05-08T04:25:55;11.80;;;8.68;;
41661;SDS011;27351;45.992;12.666;2023-05-08T04:28:21;11.00;;;7.97;;
41661;SDS011;27351;45.992;12.666;2023-05-08T04:30:47;12.27;;;8.00;;
41661;SDS011;27351;45.992;12.666;2023-05-08T04:33:14;12.95;;;8.38;;
41661;SDS011;27351;45.992;12.666;2023-05-08T04:35:40;13.15;;;8.60;;
41661;SDS011;27351;45.992;12.666;2023-05-08T04:38:06;10.93;;;7.53;;
41661;SDS011;27351;45.992;12.666;2023-05-08T04:40:32;11.75;;;8.20;;
41661;SDS011;27351;45.992;12.666;2023-05-08T04:42:58;14.55;;;9.50;;
41661;SDS011;27351;45.992;12.666;2023-05-08T04:45:25;17.08;;;8.68;;
41661;SDS011;27351;45.992;12.666;2023-05-08T04:47:51;11.93;;;8.70;;
41661;SDS011;27351;45.992;12.666;2023-05-08T04:50:17;12.75;;;9.18;;
41661;SDS011;27351;45.992;12.666;2023-05-08T04:52:43;12.45;;;9.35;;
41661;SDS011;27351;45.992;12.666;2023-05-08T04:55:09;13.88;;;8.82;;
41661;SDS011;27351;45.992;12.666;2023-05-08T04:57:37;11.20;;;8.43;;
41661;SDS011;27351;45.992;12.666;2023-05-08T05:00:03;12.43;;;8.83;;
41661;SDS011;27351;45.992;12.666;2023-05-08T05:02:33;11.55;;;8.35;;
41661;SDS011;27351;45.992;12.666;2023-05-08T05:05:00;12.85;;;8.20;;
41661;SDS011;27351;45.992;12.666;2023-05-08T05:07:27;11.80;;;8.15;;
41661;SDS011;27351;45.992;12.666;2023-05-08T05:09:52;10.85;;;7.57;;
41661;SDS011;27351;45.992;12.666;2023-05-08T05:12:19;11.80;;;8.43;;
41661;SDS011;27351;45.992;12.666;2023-05-08T05:14:44;13.53;;;8.60;;
41661;SDS011;27351;45.992;12.666;2023-05-08T05:17:10;10.93;;;7.63;;
41661;SDS011;27351;45.992;12.666;2023-05-08T05:19:35;11.32;;;7.60;;
41661;SDS011;27351;45.992;12.666;2023-05-08T05:22:02;10.80;;;7.55;;
41661;SDS011;27351;45.992;12.666;2023-05-08T05:24:30;11.02;;;7.72;;
41661;SDS011;27351;45.992;12.666;2023-05-08T05:26:56;11.05;;;7.95;;
41661;SDS011;27351;45.992;12.666;2023-05-08T05:29:22;11.23;;;7.63;;
41661;SDS011;27351;45.992;12.666;2023-05-08T05:31:48;11.77;;;8.07;;
41661;SDS011;27351;45.992;12.666;2023-05-08T05:34:14;11.43;;;7.53;;
41661;SDS011;27351;45.992;12.666;2023-05-08T05:36:40;10.70;;;7.45;;
41661;SDS011;27351;45.992;12.666;2023-05-08T05:39:06;11.25;;;7.65;;
41661;SDS011;27351;45.992;12.666;2023-05-08T05:41:32;11.43;;;8.05;;
41661;SDS011;27351;45.992;12.666;2023-05-08T05:43:59;10.45;;;7.75;;
41661;SDS011;27351;45.992;12.666;2023-05-08T05:46:25;11.35;;;8.07;;
41661;SDS011;27351;45.992;12.666;2023-05-08T05:48:57;10.40;;;7.43;;
41661;SDS011;27351;45.992;12.666;2023-05-08T05:51:23;11.25;;;8.55;;
41661;SDS011;27351;45.992;12.666;2023-05-08T05:53:48;11.33;;;8.47;;
41661;SDS011;27351;45.992;12.666;2023-05-08T05:56:14;12.37;;;8.07;;
41661;SDS011;27351;45.992;12.666;2023-05-08T05:58:40;12.95;;;8.48;;
41661;SDS011;27351;45.992;12.666;2023-05-08T06:01:09;11.27;;;8.23;;
41661;SDS011;27351;45.992;12.666;2023-05-08T06:03:35;10.60;;;7.83;;
41661;SDS011;27351;45.992;12.666;2023-05-08T06:06:02;10.85;;;7.95;;
41661;SDS011;27351;45.992;12.666;2023-05-08T06:08:28;13.20;;;8.20;;
41661;SDS011;27351;45.992;12.666;2023-05-08T06:10:54;12.10;;;8.45;;
41661;SDS011;27351;45.992;12.666;2023-05-08T06:13:21;12.43;;;7.97;;
41661;SDS011;27351;45.992;12.666;2023-05-08T06:15:47;11.57;;;7.53;;
41661;SDS011;27351;45.992;12.666;2023-05-08T06:18:15;10.60;;;7.55;;
41661;SDS011;27351;45.992;12.666;2023-05-08T06:20:41;9.82;;;7.25;;
41661;SDS011;27351;45.992;12.666;2023-05-08T06:23:06;10.98;;;7.78;;
41661;SDS011;27351;45.992;12.666;2023-05-08T06:25:32;10.23;;;6.95;;
41661;SDS011;27351;45.992;12.666;2023-05-08T06:27:58;9.98;;;7.10;;
41661;SDS011;27351;45.992;12.666;2023-05-08T06:30:24;10.25;;;6.85;;
41661;SDS011;27351;45.992;12.666;2023-05-08T06:32:50;9.43;;;6.88;;
41661;SDS011;27351;45.992;12.666;2023-05-08T06:35:15;8.90;;;6.45;;
41661;SDS011;27351;45.992;12.666;2023-05-08T06:37:43;8.98;;;6.30;;
41661;SDS011;27351;45.992;12.666;2023-05-08T06:40:09;8.17;;;5.90;;
41661;SDS011;27351;45.992;12.666;2023-05-08T06:42:35;9.27;;;6.53;;
41661;SDS011;27351;45.992;12.666;2023-05-08T06:45:01;8.47;;;6.33;;
41661;SDS011;27351;45.992;12.666;2023-05-08T06:47:27;9.48;;;6.40;;
41661;SDS011;27351;45.992;12.666;2023-05-08T06:49:53;8.27;;;5.75;;
41661;SDS011;27351;45.992;12.666;2023-05-08T06:52:19;9.50;;;6.10;;
41661;SDS011;27351;45.992;12.666;2023-05-08T06:54:45;7.90;;;6.00;;
41661;SDS011;27351;45.992;12.666;2023-05-08T06:57:11;8.20;;;5.68;;
41661;SDS011;27351;45.992;12.666;2023-05-08T06:59:39;8.23;;;5.90;;
41661;SDS011;27351;45.992;12.666;2023-05-08T07:02:05;7.70;;;5.40;;
41661;SDS011;27351;45.992;12.666;2023-05-08T07:04:30;8.30;;;6.07;;
41661;SDS011;27351;45.992;12.666;2023-05-08T07:06:56;9.38;;;5.80;;
41661;SDS011;27351;45.992;12.666;2023-05-08T07:09:21;9.90;;;6.32;;
41661;SDS011;27351;45.992;12.666;2023-05-08T07:11:47;10.23;;;6.17;;
41661;SDS011;27351;45.992;12.666;2023-05-08T07:14:12;7.73;;;5.27;;
41661;SDS011;27351;45.992;12.666;2023-05-08T07:16:38;8.60;;;6.00;;
41661;SDS011;27351;45.992;12.666;2023-05-08T07:19:03;9.18;;;6.03;;
41661;SDS011;27351;45.992;12.666;2023-05-08T07:21:29;8.93;;;5.47;;
41661;SDS011;27351;45.992;12.666;2023-05-08T07:23:55;7.47;;;5.30;;
41661;SDS011;27351;45.992;12.666;2023-05-08T07:26:21;8.40;;;4.90;;
41661;SDS011;27351;45.992;12.666;2023-05-08T07:28:47;8.20;;;5.53;;
41661;SDS011;27351;45.992;12.666;2023-05-08T07:31:12;8.50;;;5.65;;
41661;SDS011;27351;45.992;12.666;2023-05-08T07:33:38;7.77;;;5.40;;
41661;SDS011;27351;45.992;12.666;2023-05-08T07:36:04;9.30;;;5.73;;
41661;SDS011;27351;45.992;12.666;2023-05-08T07:38:29;6.73;;;4.63;;
41661;SDS011;27351;45.992;12.666;2023-05-08T07:40:56;6.20;;;4.43;;
41661;SDS011;27351;45.992;12.666;2023-05-08T07:43:22;6.82;;;4.00;;
41661;SDS011;27351;45.992;12.666;2023-05-08T07:45:47;6.10;;;4.13;;
41661;SDS011;27351;45.992;12.666;2023-05-08T07:48:13;7.15;;;3.63;;
41661;SDS011;27351;45.992;12.666;2023-05-08T07:50:39;5.70;;;3.47;;
41661;SDS011;27351;45.992;12.666;2023-05-08T07:53:04;4.73;;;2.90;;
41661;SDS011;27351;45.992;12.666;2023-05-08T07:55:30;5.20;;;2.90;;
41661;SDS011;27351;45.992;12.666;2023-05-08T07:57:56;4.32;;;2.78;;
41661;SDS011;27351;45.992;12.666;2023-05-08T08:00:22;6.65;;;2.92;;
41661;SDS011;27351;45.992;12.666;2023-05-08T08:02:48;4.20;;;2.50;;
41661;SDS011;27351;45.992;12.666;2023-05-08T08:05:13;4.97;;;2.80;;
41661;SDS011;27351;45.992;12.666;2023-05-08T08:07:39;7.73;;;3.63;;
41661;SDS011;27351;45.992;12.666;2023-05-08T08:10:05;5.40;;;2.83;;
41661;SDS011;27351;45.992;12.666;2023-05-08T08:12:31;5.10;;;2.72;;
41661;SDS011;27351;45.992;12.666;2023-05-08T08:14:56;4.37;;;2.67;;
41661;SDS011;27351;45.992;12.666;2023-05-08T08:17:22;5.30;;;2.87;;
41661;SDS011;27351;45.992;12.666;2023-05-08T08:19:48;4.65;;;2.80;;
41661;SDS011;27351;45.992;12.666;2023-05-08T08:22:14;4.78;;;2.90;;
41661;SDS011;27351;45.992;12.666;2023-05-08T08:24:39;5.20;;;2.92;;
41661;SDS011;27351;45.992;12.666;2023-05-08T08:27:05;4.03;;;2.60;;
41661;SDS011;27351;45.992;12.666;2023-05-08T08:29:30;4.23;;;2.83;;
41661;SDS011;27351;45.992;12.666;2023-05-08T08:31:56;4.93;;;3.07;;
41661;SDS011;27351;45.992;12.666;2023-05-08T08:34:21;5.13;;;2.80;;
41661;SDS011;27351;45.992;12.666;2023-05-08T08:36:47;4.40;;;2.50;;
41661;SDS011;27351;45.992;12.666;2023-05-08T08:39:13;4.38;;;2.70;;
41661;SDS011;27351;45.992;12.666;2023-05-08T08:41:39;5.32;;;2.97;;
41661;SDS011;27351;45.992;12.666;2023-05-08T08:44:04;4.30;;;2.80;;
41661;SDS011;27351;45.992;12.666;2023-05-08T08:46:30;5.33;;;3.23;;
41661;SDS011;27351;45.992;12.666;2023-05-08T08:48:57;5.45;;;2.92;;
41661;SDS011;27351;45.992;12.666;2023-05-08T08:51:27;5.75;;;3.00;;
41661;SDS011;27351;45.992;12.666;2023-05-08T08:53:57;5.65;;;3.05;;
41661;SDS011;27351;45.992;12.666;2023-05-08T08:56:25;5.93;;;3.03;;
41661;SDS011;27351;45.992;12.666;2023-05-08T08:58:53;4.95;;;3.22;;
41661;SDS011;27351;45.992;12.666;2023-05-08T09:01:20;5.38;;;3.33;;
41661;SDS011;27351;45.992;12.666;2023-05-08T09:03:47;5.45;;;3.50;;
41661;SDS011;27351;45.992;12.666;2023-05-08T09:06:13;5.57;;;3.20;;
41661;SDS011;27351;45.992;12.666;2023-05-08T09:08:39;7.55;;;3.47;;
41661;SDS011;27351;45.992;12.666;2023-05-08T09:11:05;6.78;;;3.58;;
41661;SDS011;27351;45.992;12.666;2023-05-08T09:13:30;5.50;;;3.63;;
41661;SDS011;27351;45.992;12.666;2023-05-08T09:15:56;5.10;;;3.20;;
41661;SDS011;27351;45.992;12.666;2023-05-08T09:18:22;5.30;;;3.20;;
41661;SDS011;27351;45.992;12.666;2023-05-08T09:20:48;5.20;;;3.17;;
41661;SDS011;27351;45.992;12.666;2023-05-08T09:23:14;4.95;;;3.20;;
41661;SDS011;27351;45.992;12.666;2023-05-08T09:25:45;4.47;;;2.92;;
41661;SDS011;27351;45.992;12.666;2023-05-08T09:28:14;6.22;;;3.50;;
41661;SDS011;27351;45.992;12.666;2023-05-08T09:31:01;5.10;;;3.40;;
41661;SDS011;27351;45.992;12.666;2023-05-08T09:33:27;5.78;;;3.40;;
41661;SDS011;27351;45.992;12.666;2023-05-08T09:35:53;6.75;;;3.42;;
41661;SDS011;27351;45.992;12.666;2023-05-08T09:38:37;7.15;;;3.50;;
41661;SDS011;27351;45.992;12.666;2023-05-08T09:41:13;7.05;;;3.85;;
41661;SDS011;27351;45.992;12.666;2023-05-08T09:43:40;6.18;;;3.70;;
41661;SDS011;27351;45.992;12.666;2023-05-08T09:48:43;6.05;;;3.83;;
41661;SDS011;27351;45.992;12.666;2023-05-08T09:51:10;7.78;;;4.10;;
41661;SDS011;27351;45.992;12.666;2023-05-08T09:53:35;6.50;;;4.55;;
41661;SDS011;27351;45.992;12.666;2023-05-08T09:56:01;8.00;;;4.20;;
41661;SDS011;27351;45.992;12.666;2023-05-08T09:58:36;7.43;;;4.40;;
41661;SDS011;27351;45.992;12.666;2023-05-08T10:01:02;6.15;;;3.80;;
41661;SDS011;27351;45.992;12.666;2023-05-08T10:03:47;7.60;;;4.72;;
41661;SDS011;27351;45.992;12.666;2023-05-08T10:06:13;6.72;;;4.20;;
41661;SDS011;27351;45.992;12.666;2023-05-08T10:08:39;7.30;;;4.70;;
41661;SDS011;27351;45.992;12.666;2023-05-08T10:11:14;7.13;;;4.47;;
41661;SDS011;27351;45.992;12.666;2023-05-08T10:13:41;6.32;;;4.30;;
41661;SDS011;27351;45.992;12.666;2023-05-08T10:16:08;7.53;;;4.87;;
41661;SDS011;27351;45.992;12.666;2023-05-08T10:18:34;6.85;;;4.55;;
41661;SDS011;27351;45.992;12.666;2023-05-08T10:21:02;10.52;;;4.80;;
41661;SDS011;27351;45.992;12.666;2023-05-08T10:23:29;7.35;;;4.32;;
41661;SDS011;27351;45.992;12.666;2023-05-08T10:25:56;6.83;;;4.50;;
41661;SDS011;27351;45.992;12.666;2023-05-08T10:28:36;6.75;;;4.50;;
41661;SDS011;27351;45.992;12.666;2023-05-08T10:31:05;8.32;;;4.72;;
41661;SDS011;27351;45.992;12.666;2023-05-08T10:33:33;7.40;;;4.50;;
41661;SDS011;27351;45.992;12.666;2023-05-08T10:35:59;6.75;;;4.65;;
41661;SDS011;27351;45.992;12.666;2023-05-08T10:38:24;7.60;;;4.30;;
41661;SDS011;27351;45.992;12.666;2023-05-08T10:40:51;7.13;;;4.38;;
41661;SDS011;27351;45.992;12.666;2023-05-08T10:43:23;7.70;;;4.53;;
41661;SDS011;27351;45.992;12.666;2023-05-08T10:45:49;6.88;;;4.40;;
41661;SDS011;27351;45.992;12.666;2023-05-08T10:53:47;7.22;;;4.53;;
41661;SDS011;27351;45.992;12.666;2023-05-08T10:56:15;8.10;;;4.55;;
41661;SDS011;27351;45.992;12.666;2023-05-08T10:58:41;8.45;;;4.70;;
41661;SDS011;27351;45.992;12.666;2023-05-08T11:03:37;6.63;;;4.40;;
41661;SDS011;27351;45.992;12.666;2023-05-08T11:06:03;7.18;;;4.55;;
41661;SDS011;27351;45.992;12.666;2023-05-08T11:08:29;8.52;;;4.88;;
41661;SDS011;27351;45.992;12.666;2023-05-08T11:13:33;6.50;;;4.22;;
41661;SDS011;27351;45.992;12.666;2023-05-08T11:16:00;7.80;;;4.63;;
41661;SDS011;27351;45.992;12.666;2023-05-08T11:18:26;6.07;;;4.20;;
41661;SDS011;27351;45.992;12.666;2023-05-08T11:20:55;6.70;;;4.50;;
41661;SDS011;27351;45.992;12.666;2023-05-08T11:23:22;7.90;;;4.50;;
41661;SDS011;27351;45.992;12.666;2023-05-08T11:25:48;6.95;;;4.60;;
41661;SDS011;27351;45.992;12.666;2023-05-08T11:28:23;7.47;;;4.63;;
41661;SDS011;27351;45.992;12.666;2023-05-08T11:30:51;6.80;;;4.40;;
41661;SDS011;27351;45.992;12.666;2023-05-08T11:33:17;7.40;;;5.50;;
41661;SDS011;27351;45.992;12.666;2023-05-08T11:38:19;7.63;;;5.13;;
41661;SDS011;27351;45.992;12.666;2023-05-08T11:43:18;8.20;;;5.28;;
41661;SDS011;27351;45.992;12.666;2023-05-08T11:45:44;8.07;;;5.57;;
41661;SDS011;27351;45.992;12.666;2023-05-08T11:48:11;9.68;;;5.93;;
41661;SDS011;27351;45.992;12.666;2023-05-08T11:50:38;9.07;;;6.10;;
41661;SDS011;27351;45.992;12.666;2023-05-08T11:53:04;8.60;;;5.50;;
41661;SDS011;27351;45.992;12.666;2023-05-08T11:55:29;8.35;;;5.97;;
41661;SDS011;27351;45.992;12.666;2023-05-08T11:57:55;9.13;;;5.38;;
41661;SDS011;27351;45.992;12.666;2023-05-08T12:00:21;9.07;;;5.43;;
41661;SDS011;27351;45.992;12.666;2023-05-08T12:02:46;8.37;;;5.73;;
41661;SDS011;27351;45.992;12.666;2023-05-08T12:05:12;8.30;;;5.50;;
41661;SDS011;27351;45.992;12.666;2023-05-08T12:07:46;9.05;;;5.43;;
41661;SDS011;27351;45.992;12.666;2023-05-08T12:10:12;8.38;;;5.40;;
41661;SDS011;27351;45.992;12.666;2023-05-08T12:12:38;8.38;;;5.85;;
41661;SDS011;27351;45.992;12.666;2023-05-08T12:15:08;8.68;;;5.90;;
41661;SDS011;27351;45.992;12.666;2023-05-08T12:17:34;9.20;;;6.07;;
41661;SDS011;27351;45.992;12.666;2023-05-08T12:20:13;9.68;;;6.10;;
41661;SDS011;27351;45.992;12.666;2023-05-08T12:22:39;8.55;;;5.85;;
41661;SDS011;27351;45.992;12.666;2023-05-08T12:25:06;10.27;;;5.95;;
41661;SDS011;27351;45.992;12.666;2023-05-08T12:27:35;8.90;;;5.60;;
41661;SDS011;27351;45.992;12.666;2023-05-08T12:30:08;9.27;;;6.38;;
41661;SDS011;27351;45.992;12.666;2023-05-08T12:32:39;9.05;;;5.22;;
41661;SDS011;27351;45.992;12.666;2023-05-08T12:35:06;9.18;;;4.78;;
41661;SDS011;27351;45.992;12.666;2023-05-08T12:37:32;43.65;;;7.10;;
41661;SDS011;27351;45.992;12.666;2023-05-08T12:39:58;33.50;;;7.45;;
41661;SDS011;27351;45.992;12.666;2023-05-08T12:42:43;10.43;;;4.47;;
41661;SDS011;27351;45.992;12.666;2023-05-08T12:45:15;6.72;;;4.05;;
41661;SDS011;27351;45.992;12.666;2023-05-08T12:47:43;6.10;;;3.92;;
41661;SDS011;27351;45.992;12.666;2023-05-08T12:50:09;7.38;;;4.18;;
41661;SDS011;27351;45.992;12.666;2023-05-08T12:52:36;7.13;;;3.90;;
41661;SDS011;27351;45.992;12.666;2023-05-08T12:55:02;7.53;;;3.83;;
41661;SDS011;27351;45.992;12.666;2023-05-08T12:57:27;6.55;;;4.22;;
41661;SDS011;27351;45.992;12.666;2023-05-08T12:59:53;8.30;;;4.40;;
41661;SDS011;27351;45.992;12.666;2023-05-08T13:02:27;6.38;;;4.43;;
41661;SDS011;27351;45.992;12.666;2023-05-08T13:04:52;7.40;;;4.10;;
41661;SDS011;27351;45.992;12.666;2023-05-08T13:07:20;6.60;;;4.10;;
41661;SDS011;27351;45.992;12.666;2023-05-08T13:09:55;7.73;;;4.83;;
41661;SDS011;27351;45.992;12.666;2023-05-08T13:12:21;8.52;;;4.85;;
41661;SDS011;27351;45.992;12.666;2023-05-08T13:14:47;6.67;;;4.43;;
41661;SDS011;27351;45.992;12.666;2023-05-08T13:17:15;8.00;;;5.00;;
41661;SDS011;27351;45.992;12.666;2023-05-08T13:19:41;7.88;;;5.00;;
41661;SDS011;27351;45.992;12.666;2023-05-08T13:22:07;7.00;;;4.77;;
41661;SDS011;27351;45.992;12.666;2023-05-08T13:24:34;7.90;;;4.93;;
41661;SDS011;27351;45.992;12.666;2023-05-08T13:26:59;7.93;;;4.97;;
41661;SDS011;27351;45.992;12.666;2023-05-08T13:29:25;8.95;;;5.22;;
41661;SDS011;27351;45.992;12.666;2023-05-08T13:31:51;8.27;;;4.68;;
41661;SDS011;27351;45.992;12.666;2023-05-08T13:34:17;6.97;;;4.50;;
41661;SDS011;27351;45.992;12.666;2023-05-08T13:36:42;8.50;;;4.57;;
41661;SDS011;27351;45.992;12.666;2023-05-08T13:39:08;7.20;;;4.60;;
41661;SDS011;27351;45.992;12.666;2023-05-08T13:41:34;8.07;;;4.10;;
41661;SDS011;27351;45.992;12.666;2023-05-08T13:43:59;7.27;;;4.40;;
41661;SDS011;27351;45.992;12.666;2023-05-08T13:46:25;7.43;;;4.75;;
41661;SDS011;27351;45.992;12.666;2023-05-08T13:48:50;10.93;;;5.57;;
41661;SDS011;27351;45.992;12.666;2023-05-08T13:51:16;7.60;;;4.40;;
41661;SDS011;27351;45.992;12.666;2023-05-08T13:53:41;7.47;;;4.83;;
41661;SDS011;27351;45.992;12.666;2023-05-08T13:56:07;7.22;;;4.65;;
41661;SDS011;27351;45.992;12.666;2023-05-08T13:58:33;8.20;;;4.30;;
41661;SDS011;27351;45.992;12.666;2023-05-08T14:00:58;7.20;;;4.60;;
41661;SDS011;27351;45.992;12.666;2023-05-08T14:03:24;9.20;;;4.75;;
41661;SDS011;27351;45.992;12.666;2023-05-08T14:05:49;7.87;;;4.67;;
41661;SDS011;27351;45.992;12.666;2023-05-08T14:08:15;8.27;;;4.77;;
41661;SDS011;27351;45.992;12.666;2023-05-08T14:10:41;7.82;;;4.70;;
41661;SDS011;27351;45.992;12.666;2023-05-08T14:13:07;7.45;;;4.43;;
41661;SDS011;27351;45.992;12.666;2023-05-08T14:15:32;8.13;;;4.60;;
41661;SDS011;27351;45.992;12.666;2023-05-08T14:17:58;8.25;;;4.60;;
41661;SDS011;27351;45.992;12.666;2023-05-08T14:20:24;7.30;;;4.63;;
41661;SDS011;27351;45.992;12.666;2023-05-08T14:22:50;7.45;;;4.50;;
41661;SDS011;27351;45.992;12.666;2023-05-08T14:25:15;6.97;;;4.10;;
41661;SDS011;27351;45.992;12.666;2023-05-08T14:27:41;5.80;;;3.70;;
41661;SDS011;27351;45.992;12.666;2023-05-08T14:30:07;7.40;;;4.10;;
41661;SDS011;27351;45.992;12.666;2023-05-08T14:32:33;7.10;;;3.88;;
41661;SDS011;27351;45.992;12.666;2023-05-08T14:34:58;6.78;;;3.70;;
41661;SDS011;27351;45.992;12.666;2023-05-08T14:37:24;6.00;;;3.63;;
41661;SDS011;27351;45.992;12.666;2023-05-08T14:39:50;6.87;;;3.60;;
41661;SDS011;27351;45.992;12.666;2023-05-08T14:42:18;8.60;;;4.00;;
41661;SDS011;27351;45.992;12.666;2023-05-08T14:44:44;5.50;;;3.17;;
41661;SDS011;27351;45.992;12.666;2023-05-08T14:47:10;6.22;;;3.75;;
41661;SDS011;27351;45.992;12.666;2023-05-08T14:49:35;7.53;;;3.50;;
41661;SDS011;27351;45.992;12.666;2023-05-08T14:52:01;6.30;;;3.77;;
41661;SDS011;27351;45.992;12.666;2023-05-08T14:54:26;7.57;;;3.60;;
41661;SDS011;27351;45.992;12.666;2023-05-08T14:56:52;6.55;;;3.55;;
41661;SDS011;27351;45.992;12.666;2023-05-08T14:59:18;5.87;;;3.43;;
41661;SDS011;27351;45.992;12.666;2023-05-08T15:01:43;7.65;;;4.22;;
41661;SDS011;27351;45.992;12.666;2023-05-08T15:04:09;7.00;;;3.63;;
41661;SDS011;27351;45.992;12.666;2023-05-08T15:06:35;6.57;;;3.55;;
41661;SDS011;27351;45.992;12.666;2023-05-08T15:09:01;5.68;;;3.10;;
41661;SDS011;27351;45.992;12.666;2023-05-08T15:11:27;7.38;;;3.70;;
41661;SDS011;27351;45.992;12.666;2023-05-08T15:13:54;5.25;;;3.22;;
41661;SDS011;27351;45.992;12.666;2023-05-08T15:16:20;5.40;;;3.20;;